createdAt,value
2019-03-11T00:01:33.931Z,100318.81
2019-03-11T00:06:37.355Z,100319.53
2019-03-11T00:11:40.811Z,100313.02
2019-03-11T00:16:44.237Z,100307.09
2019-03-11T00:21:47.723Z,100314.82
2019-03-11T00:26:51.222Z,100323.05
2019-03-11T00:31:54.709Z,100324.31
2019-03-11T00:36:58.133Z,100316.68
2019-03-11T00:42:01.675Z,100316.59
2019-03-11T00:47:05.155Z,100320.03
2019-03-11T00:52:08.594Z,100314.59
2019-03-11T00:57:12.007Z,100302.26
2019-03-11T01:02:15.416Z,100315.66
2019-03-11T01:07:18.982Z,100300.67
2019-03-11T01:12:22.413Z,100301.97
2019-03-11T01:17:25.832Z,100310.19
2019-03-11T01:22:29.255Z,100311.92
2019-03-11T01:27:32.691Z,100307.25
2019-03-11T01:32:36.093Z,100303.43
2019-03-11T01:37:39.532Z,100299.15
2019-03-11T01:42:43.050Z,100303.44
2019-03-11T01:47:47.348Z,100303.26
2019-03-11T01:52:50.763Z,100296.32
2019-03-11T01:57:54.199Z,100283.00
2019-03-11T02:02:57.653Z,100282.20
2019-03-11T02:08:01.083Z,100281.34
2019-03-11T02:13:04.605Z,100266.60
2019-03-11T02:18:08.018Z,100271.34
2019-03-11T02:23:11.507Z,100255.88
2019-03-11T02:28:15.047Z,100248.03
2019-03-11T02:33:18.565Z,100249.69
2019-03-11T02:38:22.007Z,100247.61
2019-03-11T02:43:25.445Z,100238.93
2019-03-11T02:48:28.890Z,100237.16
2019-03-11T02:53:32.334Z,100250.45
2019-03-11T02:58:35.840Z,100266.77
2019-03-11T03:03:41.046Z,100249.83
2019-03-11T03:08:44.484Z,100235.25
2019-03-11T03:13:47.905Z,100239.52
2019-03-11T03:18:51.367Z,100239.98
2019-03-11T03:23:54.837Z,100238.62
2019-03-11T03:28:58.234Z,100245.55
2019-03-11T03:34:01.699Z,100242.96
2019-03-11T03:39:07.654Z,100250.67
2019-03-11T03:44:11.266Z,100252.75
2019-03-11T03:49:14.688Z,100250.20
2019-03-11T03:54:18.132Z,100259.62
2019-03-11T03:59:21.612Z,100258.70
2019-03-11T04:04:25.013Z,100243.30
2019-03-11T04:09:28.472Z,100239.83
2019-03-11T04:14:31.956Z,100238.45
2019-03-11T04:19:35.441Z,100236.87
2019-03-11T04:24:39.106Z,100235.11
2019-03-11T04:29:42.534Z,100235.16
2019-03-11T04:34:45.968Z,100255.28
2019-03-11T04:39:49.454Z,100267.77
2019-03-11T04:44:52.931Z,100265.50
2019-03-11T04:49:56.360Z,100269.78
2019-03-11T04:55:00.561Z,100267.58
2019-03-11T05:00:05.674Z,100281.39
2019-03-11T05:05:09.165Z,100292.61
2019-03-11T05:10:16.147Z,100290.04
2019-03-11T05:15:18.842Z,100303.41
2019-03-11T05:20:22.360Z,100290.32
2019-03-11T05:25:25.798Z,100296.30
2019-03-11T05:30:29.219Z,100289.50
2019-03-11T05:35:32.672Z,100287.87
2019-03-11T05:40:36.277Z,100280.56
2019-03-11T05:45:39.734Z,100312.87
2019-03-11T05:50:43.180Z,100306.42
2019-03-11T05:55:46.641Z,100299.06
2019-03-11T06:00:50.084Z,100292.25
2019-03-11T06:05:53.806Z,100293.55
2019-03-11T06:10:57.235Z,100302.97
2019-03-11T06:16:00.688Z,100293.98
2019-03-11T06:21:17.721Z,100296.62
2019-03-11T06:26:21.154Z,100291.88
2019-03-11T06:31:24.610Z,100305.11
2019-03-11T06:36:28.071Z,100302.99
2019-03-11T06:41:31.523Z,100307.84
2019-03-11T06:46:35.036Z,100313.81
2019-03-11T06:51:38.566Z,100322.03
2019-03-11T06:56:42.030Z,100322.11
2019-03-11T07:01:45.505Z,100332.83
2019-03-11T07:06:48.949Z,100345.39
2019-03-11T07:11:52.407Z,100345.45
2019-03-11T07:16:55.870Z,100347.58
2019-03-11T07:21:59.344Z,100360.13
2019-03-11T07:27:02.780Z,100363.63
2019-03-11T07:32:06.202Z,100362.11
2019-03-11T07:37:09.877Z,100367.70
2019-03-11T07:42:13.362Z,100371.86
2019-03-11T07:47:16.797Z,100376.52
2019-03-11T07:52:20.239Z,100376.88
2019-03-11T07:57:23.671Z,100381.06
2019-03-11T08:02:27.757Z,100382.36
2019-03-11T08:07:31.220Z,100395.63
2019-03-11T08:12:34.675Z,100396.84
2019-03-11T08:17:38.110Z,100398.05
2019-03-11T08:22:41.541Z,100405.90
2019-03-11T08:27:45.047Z,100404.28
2019-03-11T08:32:48.979Z,100412.92
2019-03-11T08:37:52.445Z,100411.74
2019-03-11T08:42:55.891Z,100409.22
2019-03-11T08:47:59.344Z,100419.34
2019-03-11T08:53:02.790Z,100422.94
2019-03-11T08:58:06.313Z,100439.23
2019-03-11T09:03:09.758Z,100439.55
2019-03-11T09:08:13.203Z,100457.34
2019-03-11T09:13:16.640Z,100440.66
2019-03-11T09:18:20.092Z,100454.16
2019-03-11T09:23:23.531Z,100463.18
2019-03-11T09:28:27.082Z,100471.68
2019-03-11T09:33:30.596Z,100479.69
2019-03-11T09:38:34.032Z,100483.82
2019-03-11T09:43:37.478Z,100474.44
2019-03-11T09:48:40.934Z,100476.48
2019-03-11T09:53:44.373Z,100494.63
2019-03-11T09:58:47.832Z,100489.75
2019-03-11T10:03:51.324Z,100501.00
2019-03-11T10:08:54.784Z,100513.20
2019-03-11T10:13:58.218Z,100500.67
2019-03-11T10:19:01.669Z,100509.25
2019-03-11T10:24:05.180Z,100516.56
2019-03-11T10:29:08.593Z,100522.23
2019-03-11T10:34:12.042Z,100520.09
2019-03-11T10:39:15.494Z,100515.23
2019-03-11T10:44:18.948Z,100513.77
2019-03-11T10:49:22.413Z,100521.25
2019-03-11T10:54:25.854Z,100527.52
2019-03-11T10:59:29.349Z,100525.95
2019-03-11T11:04:32.871Z,100538.56
2019-03-11T11:09:36.369Z,100539.17
2019-03-11T11:14:40.060Z,100536.23
2019-03-11T11:19:43.506Z,100531.17
2019-03-11T11:24:46.974Z,100529.54
2019-03-11T11:29:50.400Z,100531.22
2019-03-11T11:34:53.849Z,100531.31
2019-03-11T11:39:58.035Z,100541.74
2019-03-11T11:45:01.474Z,100549.89
2019-03-11T11:50:08.027Z,100567.98
2019-03-11T11:55:12.384Z,100554.56
2019-03-11T12:00:22.127Z,100564.00
2019-03-11T12:05:25.845Z,100571.38
2019-03-11T12:10:33.334Z,100566.27
2019-03-11T12:15:36.834Z,100570.67
2019-03-11T12:20:40.345Z,100580.19
2019-03-11T12:25:43.786Z,100572.44
2019-03-11T12:30:47.237Z,100556.66
2019-03-11T12:35:50.691Z,100558.06
2019-03-11T12:40:54.150Z,100559.89
2019-03-11T12:45:57.590Z,100571.43
2019-03-11T12:51:01.022Z,100590.91
2019-03-11T12:56:04.462Z,100590.48
2019-03-11T13:01:07.999Z,100588.35
2019-03-11T13:06:11.503Z,100594.86
2019-03-11T13:11:14.998Z,100600.19
2019-03-11T13:16:18.432Z,100599.47
2019-03-11T13:21:24.706Z,100587.86
2019-03-11T13:26:28.125Z,100596.49
2019-03-11T13:31:31.593Z,100628.42
2019-03-11T13:36:35.047Z,100629.87
2019-03-11T13:41:38.486Z,100617.56
2019-03-11T13:46:41.932Z,100626.73
2019-03-11T13:51:45.440Z,100623.33
2019-03-11T13:56:48.922Z,100629.73
2019-03-11T14:01:52.453Z,100647.84
2019-03-11T14:06:55.910Z,100636.11
2019-03-11T14:11:59.437Z,100617.94
2019-03-11T14:17:02.890Z,100611.97
2019-03-11T14:22:06.387Z,100607.69
2019-03-11T14:27:09.911Z,100612.91
2019-03-11T14:32:14.502Z,100620.27
2019-03-11T14:37:18.051Z,100609.84
2019-03-11T14:42:21.513Z,100598.53
2019-03-11T14:47:24.951Z,100588.97
2019-03-11T14:52:28.369Z,100585.51
2019-03-11T14:57:31.808Z,100593.28
2019-03-11T15:02:35.311Z,100626.51
2019-03-11T15:07:38.806Z,100680.73
2019-03-11T15:12:42.538Z,100683.10
2019-03-11T15:17:45.978Z,100697.98
2019-03-11T15:22:49.546Z,100670.92
2019-03-11T15:27:52.976Z,100653.31
2019-03-11T15:32:56.405Z,100657.27
2019-03-11T15:37:59.858Z,100652.02
2019-03-11T15:43:03.279Z,100649.91
2019-03-11T15:48:06.725Z,100671.31
2019-03-11T15:53:10.172Z,100651.30
2019-03-11T15:58:13.617Z,100671.17
2019-03-11T16:03:17.112Z,100673.16
2019-03-11T16:08:20.564Z,100680.48
2019-03-11T16:13:24.032Z,100676.53
2019-03-11T16:18:27.477Z,100673.81
2019-03-11T16:23:31.005Z,100676.78
2019-03-11T16:28:34.440Z,100662.48
2019-03-11T16:33:38.005Z,100682.72
2019-03-11T16:38:41.422Z,100696.09
2019-03-11T16:43:44.838Z,100700.33
2019-03-11T16:48:48.279Z,100712.52
2019-03-11T16:53:51.718Z,100732.73
2019-03-11T16:58:55.189Z,100760.97
2019-03-11T17:03:58.649Z,100756.59
2019-03-11T17:09:02.171Z,100766.89
2019-03-11T17:14:05.738Z,100791.50
2019-03-11T17:19:09.202Z,100806.58
2019-03-11T17:24:12.661Z,100809.94
2019-03-11T17:29:16.104Z,100825.96
2019-03-11T17:34:19.602Z,100849.64
2019-03-11T17:39:23.096Z,100853.66
2019-03-11T17:44:26.644Z,100885.53
2019-03-11T17:49:30.114Z,100894.67
2019-03-11T17:54:33.567Z,100900.77
2019-03-11T17:59:36.992Z,100928.77
2019-03-11T18:04:40.519Z,100946.02
2019-03-11T18:09:46.152Z,100971.47
2019-03-11T18:14:49.607Z,100983.02
2019-03-11T18:19:53.077Z,100995.94
2019-03-11T18:24:57.081Z,101038.44
2019-03-11T18:30:00.487Z,101047.88
2019-03-11T18:35:04.673Z,101060.80
2019-03-11T18:40:13.555Z,101073.75
2019-03-11T18:45:17.615Z,101084.59
2019-03-11T18:50:22.722Z,101106.80
2019-03-11T18:55:26.100Z,101120.55
2019-03-11T19:00:29.579Z,101139.52
2019-03-11T19:05:33.055Z,101146.98
2019-03-11T19:10:36.475Z,101158.69
2019-03-11T19:15:39.919Z,101181.97
2019-03-11T19:20:43.440Z,101191.44
2019-03-11T19:25:46.864Z,101197.40
2019-03-11T19:30:50.434Z,101214.70
2019-03-11T19:35:55.381Z,101231.81
2019-03-11T19:40:58.834Z,101240.34
2019-03-11T19:46:02.272Z,101253.63
2019-03-11T19:51:05.812Z,101264.44
2019-03-11T19:56:09.735Z,101279.07
2019-03-11T20:01:13.273Z,101283.45
2019-03-11T20:06:16.727Z,101300.92
2019-03-11T20:11:20.298Z,101311.66
2019-03-11T20:16:23.756Z,101298.34
2019-03-11T20:21:27.791Z,101321.70
2019-03-11T20:26:31.416Z,101319.62
2019-03-11T20:31:34.876Z,101321.31
2019-03-11T20:36:38.312Z,101328.91
2019-03-11T20:41:43.285Z,101350.41
2019-03-11T20:46:46.814Z,101354.77
2019-03-11T20:51:50.300Z,101356.84
2019-03-11T20:56:54.719Z,101362.44
2019-03-11T21:01:58.174Z,101375.72
2019-03-11T21:07:03.198Z,101380.88
2019-03-11T21:12:06.770Z,101389.05
2019-03-11T21:17:25.257Z,101388.16
2019-03-11T21:22:19.764Z,101395.79
2019-03-11T21:27:23.228Z,101393.15
2019-03-11T21:32:30.293Z,101398.53
2019-03-11T21:37:36.377Z,101392.22
2019-03-11T21:42:40.785Z,101396.48
2019-03-11T21:47:44.247Z,101415.47
2019-03-11T21:52:47.829Z,101420.27
2019-03-11T21:57:56.036Z,101420.33
2019-03-11T22:02:59.456Z,101429.91
2019-03-11T22:08:02.885Z,101434.75
2019-03-11T22:13:06.356Z,101435.20
2019-03-11T22:18:09.799Z,101443.37
2019-03-11T22:23:13.317Z,101455.89
2019-03-11T22:28:16.822Z,101461.12
2019-03-11T22:33:20.287Z,101470.16
2019-03-11T22:38:24.544Z,101482.66
2019-03-11T22:43:27.997Z,101479.69
2019-03-11T22:48:31.426Z,101489.03
2019-03-11T22:53:34.860Z,101492.97
2019-03-11T22:58:38.283Z,101498.31
2019-03-11T23:03:50.558Z,101496.48
2019-03-11T23:08:46.906Z,101502.46
2019-03-11T23:13:50.382Z,101505.11
2019-03-11T23:18:53.817Z,101505.68
2019-03-11T23:23:57.261Z,101498.37
2019-03-11T23:29:00.690Z,101501.71
2019-03-11T23:34:04.140Z,101496.09
2019-03-11T23:39:08.139Z,101504.30
2019-03-11T23:44:11.574Z,101507.18
2019-03-11T23:49:15.007Z,101515.70
2019-03-11T23:54:18.462Z,101517.91
2019-03-11T23:59:21.903Z,101521.33
